sensor_id;sensor_type;location;lat;lon;timestamp;P1;durP1;ratioP1;P2;durP2;ratioP2
75446;SDS011;64024;55.820;37.574;2023-02-18T00:00:50;7.25;;;5.97;;
75446;SDS011;64024;55.820;37.574;2023-02-18T00:03:16;7.70;;;6.10;;
75446;SDS011;64024;55.820;37.574;2023-02-18T00:05:41;8.13;;;5.95;;
75446;SDS011;64024;55.820;37.574;2023-02-18T00:08:07;8.63;;;6.82;;
75446;SDS011;64024;55.820;37.574;2023-02-18T00:10:32;7.03;;;6.05;;
75446;SDS011;64024;55.820;37.574;2023-02-18T00:12:58;6.97;;;6.22;;
75446;SDS011;64024;55.820;37.574;2023-02-18T00:15:24;7.57;;;5.60;;
75446;SDS011;64024;55.820;37.574;2023-02-18T00:17:49;7.03;;;6.20;;
75446;SDS011;64024;55.820;37.574;2023-02-18T00:20:15;7.45;;;5.93;;
75446;SDS011;64024;55.820;37.574;2023-02-18T00:22:40;8.25;;;6.25;;
75446;SDS011;64024;55.820;37.574;2023-02-18T00:27:50;7.90;;;6.65;;
75446;SDS011;64024;55.820;37.574;2023-02-18T00:30:16;8.40;;;5.85;;
75446;SDS011;64024;55.820;37.574;2023-02-18T00:35:26;8.85;;;7.07;;
75446;SDS011;64024;55.820;37.574;2023-02-18T00:37:51;7.35;;;6.00;;
75446;SDS011;64024;55.820;37.574;2023-02-18T00:40:17;8.40;;;6.95;;
75446;SDS011;64024;55.820;37.574;2023-02-18T00:42:44;7.63;;;6.72;;
75446;SDS011;64024;55.820;37.574;2023-02-18T00:45:09;7.53;;;6.05;;
75446;SDS011;64024;55.820;37.574;2023-02-18T00:47:35;8.98;;;7.20;;
75446;SDS011;64024;55.820;37.574;2023-02-18T00:50:00;7.63;;;6.40;;
75446;SDS011;64024;55.820;37.574;2023-02-18T00:52:26;7.97;;;6.55;;
75446;SDS011;64024;55.820;37.574;2023-02-18T00:54:51;8.50;;;6.88;;
75446;SDS011;64024;55.820;37.574;2023-02-18T00:57:17;7.45;;;6.03;;
75446;SDS011;64024;55.820;37.574;2023-02-18T00:59:42;8.68;;;6.40;;
75446;SDS011;64024;55.820;37.574;2023-02-18T01:02:08;7.43;;;6.22;;
75446;SDS011;64024;55.820;37.574;2023-02-18T01:04:52;10.10;;;7.38;;
75446;SDS011;64024;55.820;37.574;2023-02-18T01:07:17;7.72;;;6.93;;
75446;SDS011;64024;55.820;37.574;2023-02-18T01:09:43;8.35;;;6.63;;
75446;SDS011;64024;55.820;37.574;2023-02-18T01:12:09;7.55;;;6.70;;
75446;SDS011;64024;55.820;37.574;2023-02-18T01:14:53;8.00;;;6.47;;
75446;SDS011;64024;55.820;37.574;2023-02-18T01:17:18;9.10;;;7.55;;
75446;SDS011;64024;55.820;37.574;2023-02-18T01:19:44;8.73;;;6.75;;
75446;SDS011;64024;55.820;37.574;2023-02-18T01:22:09;7.85;;;6.85;;
75446;SDS011;64024;55.820;37.574;2023-02-18T01:24:35;7.60;;;6.55;;
75446;SDS011;64024;55.820;37.574;2023-02-18T01:27:02;9.10;;;7.28;;
75446;SDS011;64024;55.820;37.574;2023-02-18T01:29:28;7.45;;;6.63;;
75446;SDS011;64024;55.820;37.574;2023-02-18T01:31:54;9.88;;;7.65;;
75446;SDS011;64024;55.820;37.574;2023-02-18T01:34:19;8.00;;;7.20;;
75446;SDS011;64024;55.820;37.574;2023-02-18T01:36:45;8.07;;;6.85;;
75446;SDS011;64024;55.820;37.574;2023-02-18T01:39:10;8.80;;;7.45;;
75446;SDS011;64024;55.820;37.574;2023-02-18T01:44:22;8.68;;;7.25;;
75446;SDS011;64024;55.820;37.574;2023-02-18T01:46:50;9.60;;;7.38;;
75446;SDS011;64024;55.820;37.574;2023-02-18T01:49:18;8.98;;;7.72;;
75446;SDS011;64024;55.820;37.574;2023-02-18T01:51:52;9.85;;;7.30;;
75446;SDS011;64024;55.820;37.574;2023-02-18T01:54:24;7.97;;;7.18;;
75446;SDS011;64024;55.820;37.574;2023-02-18T01:57:03;8.88;;;7.22;;
75446;SDS011;64024;55.820;37.574;2023-02-18T01:59:30;8.88;;;7.28;;
75446;SDS011;64024;55.820;37.574;2023-02-18T02:02:02;7.72;;;6.43;;
75446;SDS011;64024;55.820;37.574;2023-02-18T02:04:31;8.23;;;6.63;;
75446;SDS011;64024;55.820;37.574;2023-02-18T02:06:56;9.93;;;7.30;;
75446;SDS011;64024;55.820;37.574;2023-02-18T02:09:22;8.80;;;7.38;;
75446;SDS011;64024;55.820;37.574;2023-02-18T02:17:29;8.02;;;6.70;;
75446;SDS011;64024;55.820;37.574;2023-02-18T02:28:51;9.00;;;6.80;;
75446;SDS011;64024;55.820;37.574;2023-02-18T02:48:50;8.43;;;6.38;;
75446;SDS011;64024;55.820;37.574;2023-02-18T02:51:29;8.68;;;7.22;;
75446;SDS011;64024;55.820;37.574;2023-02-18T02:54:09;7.95;;;6.60;;
75446;SDS011;64024;55.820;37.574;2023-02-18T02:56:38;9.38;;;6.13;;
75446;SDS011;64024;55.820;37.574;2023-02-18T02:59:05;6.75;;;5.32;;
75446;SDS011;64024;55.820;37.574;2023-02-18T03:07:24;6.88;;;5.22;;
75446;SDS011;64024;55.820;37.574;2023-02-18T03:15:04;8.00;;;5.43;;
75446;SDS011;64024;55.820;37.574;2023-02-18T03:18:04;6.85;;;5.70;;
75446;SDS011;64024;55.820;37.574;2023-02-18T03:20:38;6.50;;;5.57;;
75446;SDS011;64024;55.820;37.574;2023-02-18T03:23:11;7.22;;;5.53;;
75446;SDS011;64024;55.820;37.574;2023-02-18T03:31:31;8.02;;;5.60;;
75446;SDS011;64024;55.820;37.574;2023-02-18T03:34:06;6.95;;;5.57;;
75446;SDS011;64024;55.820;37.574;2023-02-18T03:36:40;5.63;;;4.97;;
75446;SDS011;64024;55.820;37.574;2023-02-18T03:39:10;7.15;;;5.97;;
75446;SDS011;64024;55.820;37.574;2023-02-18T03:41:40;6.53;;;5.50;;
75446;SDS011;64024;55.820;37.574;2023-02-18T03:44:07;8.82;;;5.43;;
75446;SDS011;64024;55.820;37.574;2023-02-18T03:46:34;7.00;;;5.72;;
75446;SDS011;64024;55.820;37.574;2023-02-18T03:49:19;7.43;;;5.63;;
75446;SDS011;64024;55.820;37.574;2023-02-18T03:51:44;6.93;;;5.35;;
75446;SDS011;64024;55.820;37.574;2023-02-18T03:54:11;7.88;;;6.00;;
75446;SDS011;64024;55.820;37.574;2023-02-18T03:56:38;7.55;;;6.00;;
75446;SDS011;64024;55.820;37.574;2023-02-18T03:59:05;7.95;;;5.82;;
75446;SDS011;64024;55.820;37.574;2023-02-18T04:01:31;8.38;;;6.68;;
75446;SDS011;64024;55.820;37.574;2023-02-18T04:03:56;7.70;;;6.13;;
75446;SDS011;64024;55.820;37.574;2023-02-18T04:06:22;8.57;;;6.35;;
75446;SDS011;64024;55.820;37.574;2023-02-18T04:08:48;8.23;;;7.05;;
75446;SDS011;64024;55.820;37.574;2023-02-18T04:11:14;9.13;;;6.97;;
75446;SDS011;64024;55.820;37.574;2023-02-18T04:13:40;8.27;;;6.70;;
75446;SDS011;64024;55.820;37.574;2023-02-18T04:16:05;10.70;;;7.22;;
75446;SDS011;64024;55.820;37.574;2023-02-18T04:18:31;9.43;;;6.88;;
75446;SDS011;64024;55.820;37.574;2023-02-18T04:20:57;10.55;;;7.65;;
75446;SDS011;64024;55.820;37.574;2023-02-18T04:26:25;9.25;;;7.32;;
75446;SDS011;64024;55.820;37.574;2023-02-18T04:28:51;11.63;;;8.55;;
75446;SDS011;64024;55.820;37.574;2023-02-18T04:31:35;11.10;;;8.50;;
75446;SDS011;64024;55.820;37.574;2023-02-18T04:34:01;9.77;;;7.95;;
75446;SDS011;64024;55.820;37.574;2023-02-18T04:36:27;11.43;;;8.50;;
75446;SDS011;64024;55.820;37.574;2023-02-18T04:38:52;9.80;;;7.68;;
75446;SDS011;64024;55.820;37.574;2023-02-18T04:41:18;12.45;;;8.38;;
75446;SDS011;64024;55.820;37.574;2023-02-18T04:43:43;10.20;;;8.15;;
75446;SDS011;64024;55.820;37.574;2023-02-18T04:46:09;11.80;;;8.98;;
75446;SDS011;64024;55.820;37.574;2023-02-18T04:48:34;10.57;;;8.77;;
75446;SDS011;64024;55.820;37.574;2023-02-18T04:51:00;12.98;;;9.60;;
75446;SDS011;64024;55.820;37.574;2023-02-18T04:53:26;12.05;;;9.18;;
75446;SDS011;64024;55.820;37.574;2023-02-18T04:55:52;11.52;;;8.68;;
75446;SDS011;64024;55.820;37.574;2023-02-18T04:58:36;12.43;;;8.88;;
75446;SDS011;64024;55.820;37.574;2023-02-18T05:01:03;13.73;;;9.13;;
75446;SDS011;64024;55.820;37.574;2023-02-18T05:03:29;11.13;;;8.45;;
75446;SDS011;64024;55.820;37.574;2023-02-18T05:05:55;11.07;;;8.68;;
75446;SDS011;64024;55.820;37.574;2023-02-18T05:08:21;10.95;;;8.32;;
75446;SDS011;64024;55.820;37.574;2023-02-18T05:10:47;12.65;;;9.20;;
75446;SDS011;64024;55.820;37.574;2023-02-18T05:13:13;11.60;;;9.27;;
75446;SDS011;64024;55.820;37.574;2023-02-18T05:18:23;11.15;;;9.02;;
75446;SDS011;64024;55.820;37.574;2023-02-18T05:20:48;10.93;;;8.45;;
75446;SDS011;64024;55.820;37.574;2023-02-18T05:23:14;12.13;;;8.82;;
75446;SDS011;64024;55.820;37.574;2023-02-18T05:25:39;12.95;;;10.15;;
75446;SDS011;64024;55.820;37.574;2023-02-18T05:28:05;11.27;;;9.35;;
75446;SDS011;64024;55.820;37.574;2023-02-18T05:30:30;10.55;;;8.23;;
75446;SDS011;64024;55.820;37.574;2023-02-18T05:32:56;11.07;;;9.27;;
75446;SDS011;64024;55.820;37.574;2023-02-18T05:35:21;11.38;;;8.35;;
75446;SDS011;64024;55.820;37.574;2023-02-18T05:37:47;11.05;;;8.77;;
75446;SDS011;64024;55.820;37.574;2023-02-18T05:40:12;11.13;;;8.93;;
75446;SDS011;64024;55.820;37.574;2023-02-18T05:42:38;12.13;;;9.35;;
75446;SDS011;64024;55.820;37.574;2023-02-18T05:45:03;11.70;;;9.38;;
75446;SDS011;64024;55.820;37.574;2023-02-18T05:47:29;9.32;;;7.90;;
75446;SDS011;64024;55.820;37.574;2023-02-18T05:49:54;11.00;;;8.55;;
75446;SDS011;64024;55.820;37.574;2023-02-18T05:52:20;10.77;;;8.25;;
75446;SDS011;64024;55.820;37.574;2023-02-18T05:54:46;10.88;;;8.45;;
75446;SDS011;64024;55.820;37.574;2023-02-18T05:57:12;10.60;;;8.43;;
75446;SDS011;64024;55.820;37.574;2023-02-18T05:59:56;10.48;;;8.32;;
75446;SDS011;64024;55.820;37.574;2023-02-18T06:02:22;11.57;;;8.80;;
75446;SDS011;64024;55.820;37.574;2023-02-18T06:04:48;10.70;;;8.40;;
75446;SDS011;64024;55.820;37.574;2023-02-18T06:07:13;12.82;;;9.45;;
75446;SDS011;64024;55.820;37.574;2023-02-18T06:09:39;12.10;;;9.75;;
75446;SDS011;64024;55.820;37.574;2023-02-18T06:12:04;10.55;;;8.10;;
75446;SDS011;64024;55.820;37.574;2023-02-18T06:14:30;10.45;;;8.65;;
75446;SDS011;64024;55.820;37.574;2023-02-18T06:16:56;10.75;;;7.53;;
75446;SDS011;64024;55.820;37.574;2023-02-18T06:19:21;9.23;;;7.47;;
75446;SDS011;64024;55.820;37.574;2023-02-18T06:21:47;8.70;;;6.78;;
75446;SDS011;64024;55.820;37.574;2023-02-18T06:24:13;10.77;;;7.93;;
75446;SDS011;64024;55.820;37.574;2023-02-18T06:26:39;9.50;;;7.43;;
75446;SDS011;64024;55.820;37.574;2023-02-18T06:31:48;9.45;;;7.22;;
75446;SDS011;64024;55.820;37.574;2023-02-18T06:34:14;8.90;;;7.43;;
75446;SDS011;64024;55.820;37.574;2023-02-18T06:36:40;9.32;;;7.25;;
75446;SDS011;64024;55.820;37.574;2023-02-18T06:39:06;10.05;;;7.93;;
75446;SDS011;64024;55.820;37.574;2023-02-18T06:41:32;8.07;;;6.88;;
75446;SDS011;64024;55.820;37.574;2023-02-18T06:43:59;8.93;;;6.93;;
75446;SDS011;64024;55.820;37.574;2023-02-18T06:46:25;8.10;;;6.70;;
75446;SDS011;64024;55.820;37.574;2023-02-18T06:48:51;7.70;;;6.47;;
75446;SDS011;64024;55.820;37.574;2023-02-18T06:51:16;8.15;;;7.03;;
75446;SDS011;64024;55.820;37.574;2023-02-18T06:53:43;9.57;;;6.82;;
75446;SDS011;64024;55.820;37.574;2023-02-18T06:56:09;9.20;;;7.32;;
75446;SDS011;64024;55.820;37.574;2023-02-18T06:58:36;7.30;;;6.28;;
75446;SDS011;64024;55.820;37.574;2023-02-18T07:01:01;8.25;;;6.72;;
75446;SDS011;64024;55.820;37.574;2023-02-18T07:03:27;7.53;;;6.47;;
75446;SDS011;64024;55.820;37.574;2023-02-18T07:05:53;7.90;;;6.47;;
75446;SDS011;64024;55.820;37.574;2023-02-18T07:08:19;8.07;;;6.40;;
75446;SDS011;64024;55.820;37.574;2023-02-18T07:10:44;7.85;;;6.63;;
75446;SDS011;64024;55.820;37.574;2023-02-18T07:13:10;7.53;;;6.70;;
75446;SDS011;64024;55.820;37.574;2023-02-18T07:15:36;7.53;;;6.40;;
75446;SDS011;64024;55.820;37.574;2023-02-18T07:18:20;7.93;;;6.25;;
75446;SDS011;64024;55.820;37.574;2023-02-18T07:21:04;8.85;;;6.85;;
75446;SDS011;64024;55.820;37.574;2023-02-18T07:23:30;7.88;;;6.25;;
75446;SDS011;64024;55.820;37.574;2023-02-18T07:26:28;8.32;;;6.47;;
75446;SDS011;64024;55.820;37.574;2023-02-18T07:31:12;7.10;;;5.85;;
75446;SDS011;64024;55.820;37.574;2023-02-18T07:33:38;8.05;;;6.38;;
75446;SDS011;64024;55.820;37.574;2023-02-18T07:36:04;7.53;;;6.00;;
75446;SDS011;64024;55.820;37.574;2023-02-18T07:38:30;8.20;;;6.88;;
75446;SDS011;64024;55.820;37.574;2023-02-18T07:40:55;7.47;;;6.65;;
75446;SDS011;64024;55.820;37.574;2023-02-18T07:43:21;6.90;;;6.05;;
75446;SDS011;64024;55.820;37.574;2023-02-18T07:45:47;8.65;;;7.20;;
75446;SDS011;64024;55.820;37.574;2023-02-18T07:48:31;9.18;;;7.78;;
75446;SDS011;64024;55.820;37.574;2023-02-18T07:51:15;9.50;;;7.57;;
75446;SDS011;64024;55.820;37.574;2023-02-18T07:53:40;8.55;;;7.68;;
75446;SDS011;64024;55.820;37.574;2023-02-18T07:56:25;7.82;;;6.65;;
75446;SDS011;64024;55.820;37.574;2023-02-18T07:58:50;7.95;;;6.32;;
75446;SDS011;64024;55.820;37.574;2023-02-18T08:01:34;6.70;;;5.72;;
75446;SDS011;64024;55.820;37.574;2023-02-18T08:03:59;7.10;;;6.40;;
75446;SDS011;64024;55.820;37.574;2023-02-18T08:06:27;7.05;;;5.88;;
75446;SDS011;64024;55.820;37.574;2023-02-18T08:08:57;8.05;;;6.13;;
75446;SDS011;64024;55.820;37.574;2023-02-18T08:11:23;6.82;;;5.78;;
75446;SDS011;64024;55.820;37.574;2023-02-18T08:13:48;8.57;;;7.32;;
75446;SDS011;64024;55.820;37.574;2023-02-18T08:16:14;10.77;;;8.85;;
75446;SDS011;64024;55.820;37.574;2023-02-18T08:18:41;7.63;;;6.63;;
75446;SDS011;64024;55.820;37.574;2023-02-18T08:21:07;7.38;;;6.38;;
75446;SDS011;64024;55.820;37.574;2023-02-18T08:23:33;6.60;;;5.47;;
75446;SDS011;64024;55.820;37.574;2023-02-18T08:25:58;6.35;;;5.68;;
75446;SDS011;64024;55.820;37.574;2023-02-18T08:28:24;6.55;;;5.88;;
75446;SDS011;64024;55.820;37.574;2023-02-18T08:31:30;7.47;;;5.65;;
75446;SDS011;64024;55.820;37.574;2023-02-18T08:33:56;5.97;;;5.10;;
75446;SDS011;64024;55.820;37.574;2023-02-18T08:36:23;8.90;;;6.70;;
75446;SDS011;64024;55.820;37.574;2023-02-18T08:38:49;6.22;;;5.63;;
75446;SDS011;64024;55.820;37.574;2023-02-18T08:41:15;5.90;;;5.20;;
75446;SDS011;64024;55.820;37.574;2023-02-18T08:43:42;6.35;;;5.40;;
75446;SDS011;64024;55.820;37.574;2023-02-18T08:46:08;6.25;;;5.30;;
75446;SDS011;64024;55.820;37.574;2023-02-18T08:48:35;4.80;;;4.40;;
75446;SDS011;64024;55.820;37.574;2023-02-18T08:53:46;7.25;;;5.38;;
75446;SDS011;64024;55.820;37.574;2023-02-18T08:56:30;5.13;;;4.45;;
75446;SDS011;64024;55.820;37.574;2023-02-18T08:58:57;6.10;;;5.50;;
75446;SDS011;64024;55.820;37.574;2023-02-18T09:01:22;6.00;;;4.78;;
75446;SDS011;64024;55.820;37.574;2023-02-18T09:03:48;5.93;;;5.30;;
75446;SDS011;64024;55.820;37.574;2023-02-18T09:06:13;4.97;;;4.40;;
75446;SDS011;64024;55.820;37.574;2023-02-18T09:08:39;5.75;;;5.20;;
75446;SDS011;64024;55.820;37.574;2023-02-18T09:11:04;5.60;;;5.00;;
75446;SDS011;64024;55.820;37.574;2023-02-18T09:13:31;5.10;;;4.60;;
75446;SDS011;64024;55.820;37.574;2023-02-18T09:16:01;5.13;;;4.63;;
75446;SDS011;64024;55.820;37.574;2023-02-18T09:18:47;6.18;;;5.10;;
75446;SDS011;64024;55.820;37.574;2023-02-18T09:21:13;5.47;;;4.68;;
75446;SDS011;64024;55.820;37.574;2023-02-18T09:23:59;5.30;;;4.60;;
75446;SDS011;64024;55.820;37.574;2023-02-18T09:26:25;6.93;;;5.38;;
75446;SDS011;64024;55.820;37.574;2023-02-18T09:28:51;6.88;;;6.15;;
75446;SDS011;64024;55.820;37.574;2023-02-18T09:31:19;5.70;;;4.90;;
75446;SDS011;64024;55.820;37.574;2023-02-18T09:33:48;9.13;;;5.95;;
75446;SDS011;64024;55.820;37.574;2023-02-18T09:36:17;5.70;;;5.10;;
75446;SDS011;64024;55.820;37.574;2023-02-18T09:38:44;5.00;;;4.50;;
75446;SDS011;64024;55.820;37.574;2023-02-18T09:43:58;5.15;;;4.65;;
75446;SDS011;64024;55.820;37.574;2023-02-18T09:46:31;5.47;;;4.95;;
75446;SDS011;64024;55.820;37.574;2023-02-18T09:49:20;5.45;;;4.63;;
75446;SDS011;64024;55.820;37.574;2023-02-18T09:51:49;5.68;;;4.18;;
75446;SDS011;64024;55.820;37.574;2023-02-18T09:54:17;4.88;;;4.38;;
75446;SDS011;64024;55.820;37.574;2023-02-18T09:57:02;5.20;;;4.70;;
75446;SDS011;64024;55.820;37.574;2023-02-18T09:59:33;5.05;;;4.55;;
75446;SDS011;64024;55.820;37.574;2023-02-18T10:02:17;4.30;;;3.90;;
75446;SDS011;64024;55.820;37.574;2023-02-18T10:04:44;5.25;;;4.40;;
75446;SDS011;64024;55.820;37.574;2023-02-18T10:07:23;4.97;;;4.07;;
75446;SDS011;64024;55.820;37.574;2023-02-18T10:09:53;4.50;;;3.90;;
75446;SDS011;64024;55.820;37.574;2023-02-18T10:12:22;4.30;;;3.88;;
75446;SDS011;64024;55.820;37.574;2023-02-18T10:14:53;4.43;;;3.92;;
75446;SDS011;64024;55.820;37.574;2023-02-18T10:17:20;5.07;;;4.53;;
75446;SDS011;64024;55.820;37.574;2023-02-18T10:19:48;5.10;;;4.60;;
75446;SDS011;64024;55.820;37.574;2023-02-18T10:22:16;6.05;;;5.00;;
75446;SDS011;64024;55.820;37.574;2023-02-18T10:24:43;5.20;;;4.40;;
75446;SDS011;64024;55.820;37.574;2023-02-18T10:27:48;4.85;;;4.35;;
75446;SDS011;64024;55.820;37.574;2023-02-18T10:30:21;4.82;;;4.20;;
75446;SDS011;64024;55.820;37.574;2023-02-18T10:40:59;5.47;;;4.68;;
75446;SDS011;64024;55.820;37.574;2023-02-18T10:49:15;4.15;;;3.75;;
75446;SDS011;64024;55.820;37.574;2023-02-18T10:51:52;5.95;;;4.80;;
75446;SDS011;64024;55.820;37.574;2023-02-18T10:57:46;4.20;;;3.70;;
75446;SDS011;64024;55.820;37.574;2023-02-18T11:02:42;5.65;;;4.25;;
75446;SDS011;64024;55.820;37.574;2023-02-18T11:05:26;5.00;;;4.18;;
75446;SDS011;64024;55.820;37.574;2023-02-18T11:07:54;4.68;;;3.80;;
75446;SDS011;64024;55.820;37.574;2023-02-18T11:10:26;4.10;;;3.67;;
75446;SDS011;64024;55.820;37.574;2023-02-18T11:12:56;5.07;;;4.07;;
75446;SDS011;64024;55.820;37.574;2023-02-18T11:15:26;4.63;;;4.18;;
75446;SDS011;64024;55.820;37.574;2023-02-18T11:17:53;5.97;;;4.45;;
75446;SDS011;64024;55.820;37.574;2023-02-18T11:20:38;4.88;;;3.85;;
75446;SDS011;64024;55.820;37.574;2023-02-18T11:26:10;5.10;;;4.60;;
75446;SDS011;64024;55.820;37.574;2023-02-18T11:31:45;6.50;;;4.00;;
75446;SDS011;64024;55.820;37.574;2023-02-18T11:34:24;4.57;;;3.88;;
75446;SDS011;64024;55.820;37.574;2023-02-18T11:36:53;5.70;;;4.50;;
75446;SDS011;64024;55.820;37.574;2023-02-18T11:44:28;4.70;;;4.15;;
75446;SDS011;64024;55.820;37.574;2023-02-18T11:49:38;5.05;;;4.18;;
75446;SDS011;64024;55.820;37.574;2023-02-18T11:54:58;5.05;;;4.22;;
75446;SDS011;64024;55.820;37.574;2023-02-18T11:57:32;5.15;;;4.10;;
75446;SDS011;64024;55.820;37.574;2023-02-18T12:00:02;6.00;;;3.90;;
75446;SDS011;64024;55.820;37.574;2023-02-18T12:02:38;5.60;;;3.95;;
75446;SDS011;64024;55.820;37.574;2023-02-18T12:08:00;4.75;;;3.97;;
75446;SDS011;64024;55.820;37.574;2023-02-18T12:16:14;4.75;;;4.13;;
75446;SDS011;64024;55.820;37.574;2023-02-18T12:19:17;4.35;;;3.80;;
75446;SDS011;64024;55.820;37.574;2023-02-18T12:36:02;5.25;;;4.03;;
75446;SDS011;64024;55.820;37.574;2023-02-18T12:38:59;5.78;;;4.05;;
75446;SDS011;64024;55.820;37.574;2023-02-18T12:41:42;4.45;;;3.75;;
75446;SDS011;64024;55.820;37.574;2023-02-18T12:47:12;5.75;;;4.97;;
75446;SDS011;64024;55.820;37.574;2023-02-18T12:52:39;6.32;;;5.70;;
75446;SDS011;64024;55.820;37.574;2023-02-18T13:09:13;4.10;;;3.70;;
75446;SDS011;64024;55.820;37.574;2023-02-18T13:14:46;5.18;;;4.68;;
75446;SDS011;64024;55.820;37.574;2023-02-18T13:17:28;4.95;;;4.53;;
75446;SDS011;64024;55.820;37.574;2023-02-18T13:19:58;5.43;;;3.60;;
75446;SDS011;64024;55.820;37.574;2023-02-18T13:22:29;4.80;;;4.30;;
75446;SDS011;64024;55.820;37.574;2023-02-18T13:24:56;4.95;;;4.38;;
75446;SDS011;64024;55.820;37.574;2023-02-18T13:35:20;6.35;;;3.90;;
75446;SDS011;64024;55.820;37.574;2023-02-18T13:40:43;4.80;;;3.92;;
75446;SDS011;64024;55.820;37.574;2023-02-18T13:43:42;5.22;;;4.72;;
75446;SDS011;64024;55.820;37.574;2023-02-18T13:48:26;4.38;;;3.83;;
75446;SDS011;64024;55.820;37.574;2023-02-18T13:50:53;5.20;;;4.07;;
75446;SDS011;64024;55.820;37.574;2023-02-18T13:53:28;4.47;;;4.07;;
75446;SDS011;64024;55.820;37.574;2023-02-18T13:56:09;5.65;;;3.92;;
75446;SDS011;64024;55.820;37.574;2023-02-18T13:58:50;5.20;;;4.40;;
75446;SDS011;64024;55.820;37.574;2023-02-18T14:01:23;5.97;;;4.85;;
75446;SDS011;64024;55.820;37.574;2023-02-18T14:03:59;5.43;;;4.70;;
75446;SDS011;64024;55.820;37.574;2023-02-18T14:06:27;6.68;;;5.32;;
75446;SDS011;64024;55.820;37.574;2023-02-18T14:09:02;5.90;;;5.20;;
75446;SDS011;64024;55.820;37.574;2023-02-18T14:11:41;7.93;;;5.75;;
75446;SDS011;64024;55.820;37.574;2023-02-18T14:14:30;8.00;;;6.45;;
75446;SDS011;64024;55.820;37.574;2023-02-18T14:17:12;7.63;;;6.65;;
75446;SDS011;64024;55.820;37.574;2023-02-18T14:25:01;6.22;;;4.35;;
75446;SDS011;64024;55.820;37.574;2023-02-18T14:27:33;6.03;;;5.07;;
75446;SDS011;64024;55.820;37.574;2023-02-18T14:30:18;5.70;;;4.90;;
75446;SDS011;64024;55.820;37.574;2023-02-18T14:32:50;5.13;;;4.65;;
75446;SDS011;64024;55.820;37.574;2023-02-18T14:40:57;5.65;;;5.13;;
75446;SDS011;64024;55.820;37.574;2023-02-18T14:43:59;5.45;;;4.05;;
75446;SDS011;64024;55.820;37.574;2023-02-18T14:49:41;4.25;;;3.60;;
75446;SDS011;64024;55.820;37.574;2023-02-18T14:52:35;5.03;;;3.80;;
75446;SDS011;64024;55.820;37.574;2023-02-18T14:55:07;6.18;;;4.65;;
75446;SDS011;64024;55.820;37.574;2023-02-18T14:57:54;4.38;;;3.70;;
75446;SDS011;64024;55.820;37.574;2023-02-18T15:00:26;4.75;;;4.35;;
75446;SDS011;64024;55.820;37.574;2023-02-18T15:02:56;6.15;;;4.57;;
75446;SDS011;64024;55.820;37.574;2023-02-18T15:05:25;4.88;;;4.38;;
75446;SDS011;64024;55.820;37.574;2023-02-18T15:08:03;4.47;;;4.07;;
75446;SDS011;64024;55.820;37.574;2023-02-18T15:10:38;4.88;;;3.60;;
75446;SDS011;64024;55.820;37.574;2023-02-18T15:13:16;4.97;;;3.97;;
75446;SDS011;64024;55.820;37.574;2023-02-18T15:15:46;4.22;;;3.75;;
75446;SDS011;64024;55.820;37.574;2023-02-18T15:18:17;4.45;;;3.80;;
75446;SDS011;64024;55.820;37.574;2023-02-18T15:20:47;4.60;;;3.58;;
75446;SDS011;64024;55.820;37.574;2023-02-18T15:23:14;3.42;;;2.95;;
75446;SDS011;64024;55.820;37.574;2023-02-18T15:28:22;3.85;;;3.13;;
75446;SDS011;64024;55.820;37.574;2023-02-18T15:30:54;3.60;;;3.08;;
75446;SDS011;64024;55.820;37.574;2023-02-18T15:33:22;5.72;;;3.70;;
75446;SDS011;64024;55.820;37.574;2023-02-18T15:35:47;3.80;;;2.85;;
75446;SDS011;64024;55.820;37.574;2023-02-18T15:38:14;4.97;;;3.45;;
75446;SDS011;64024;55.820;37.574;2023-02-18T15:40:41;6.07;;;3.92;;
75446;SDS011;64024;55.820;37.574;2023-02-18T15:43:08;4.15;;;3.22;;
75446;SDS011;64024;55.820;37.574;2023-02-18T15:45:40;4.75;;;3.67;;
75446;SDS011;64024;55.820;37.574;2023-02-18T15:48:28;3.70;;;3.22;;
75446;SDS011;64024;55.820;37.574;2023-02-18T15:51:04;4.50;;;3.42;;
75446;SDS011;64024;55.820;37.574;2023-02-18T15:53:37;3.90;;;2.80;;
75446;SDS011;64024;55.820;37.574;2023-02-18T15:56:08;4.03;;;2.90;;
75446;SDS011;64024;55.820;37.574;2023-02-18T15:58:38;3.28;;;2.70;;
75446;SDS011;64024;55.820;37.574;2023-02-18T16:01:04;3.60;;;2.75;;
75446;SDS011;64024;55.820;37.574;2023-02-18T16:03:44;4.05;;;2.83;;
75446;SDS011;64024;55.820;37.574;2023-02-18T16:06:15;4.07;;;3.13;;
75446;SDS011;64024;55.820;37.574;2023-02-18T16:11:27;2.97;;;2.47;;
75446;SDS011;64024;55.820;37.574;2023-02-18T16:13:56;3.47;;;2.70;;
75446;SDS011;64024;55.820;37.574;2023-02-18T16:16:23;3.67;;;2.72;;
75446;SDS011;64024;55.820;37.574;2023-02-18T16:18:52;3.55;;;3.15;;
75446;SDS011;64024;55.820;37.574;2023-02-18T16:23:53;8.43;;;3.15;;
75446;SDS011;64024;55.820;37.574;2023-02-18T16:29:24;3.13;;;2.45;;
75446;SDS011;64024;55.820;37.574;2023-02-18T16:31:58;2.88;;;2.20;;
75446;SDS011;64024;55.820;37.574;2023-02-18T16:34:23;3.90;;;2.55;;
75446;SDS011;64024;55.820;37.574;2023-02-18T16:36:49;2.72;;;2.38;;
75446;SDS011;64024;55.820;37.574;2023-02-18T16:39:33;4.07;;;2.83;;
75446;SDS011;64024;55.820;37.574;2023-02-18T16:41:59;3.47;;;2.85;;
75446;SDS011;64024;55.820;37.574;2023-02-18T16:44:25;3.72;;;3.10;;
75446;SDS011;64024;55.820;37.574;2023-02-18T16:46:50;4.25;;;3.17;;
75446;SDS011;64024;55.820;37.574;2023-02-18T16:49:16;3.55;;;2.95;;
75446;SDS011;64024;55.820;37.574;2023-02-18T16:51:42;3.72;;;3.30;;
75446;SDS011;64024;55.820;37.574;2023-02-18T16:54:09;4.32;;;3.28;;
75446;SDS011;64024;55.820;37.574;2023-02-18T16:59:02;4.53;;;3.20;;
75446;SDS011;64024;55.820;37.574;2023-02-18T17:04:08;3.90;;;3.17;;
75446;SDS011;64024;55.820;37.574;2023-02-18T17:06:36;4.07;;;3.03;;
75446;SDS011;64024;55.820;37.574;2023-02-18T17:09:05;4.30;;;3.47;;
75446;SDS011;64024;55.820;37.574;2023-02-18T17:11:38;5.22;;;3.60;;
75446;SDS011;64024;55.820;37.574;2023-02-18T17:14:03;4.40;;;3.75;;
75446;SDS011;64024;55.820;37.574;2023-02-18T17:16:29;9.50;;;4.38;;
75446;SDS011;64024;55.820;37.574;2023-02-18T17:18:55;3.97;;;3.58;;
75446;SDS011;64024;55.820;37.574;2023-02-18T17:21:22;4.18;;;3.28;;
75446;SDS011;64024;55.820;37.574;2023-02-18T17:23:49;4.35;;;3.30;;
75446;SDS011;64024;55.820;37.574;2023-02-18T17:28:52;4.95;;;3.42;;
75446;SDS011;64024;55.820;37.574;2023-02-18T17:31:20;4.13;;;3.53;;
75446;SDS011;64024;55.820;37.574;2023-02-18T17:33:49;3.72;;;3.25;;
75446;SDS011;64024;55.820;37.574;2023-02-18T17:36:19;5.05;;;3.65;;
75446;SDS011;64024;55.820;37.574;2023-02-18T17:38:44;4.53;;;3.50;;
75446;SDS011;64024;55.820;37.574;2023-02-18T17:41:11;4.43;;;3.28;;
75446;SDS011;64024;55.820;37.574;2023-02-18T17:43:37;5.72;;;4.28;;
75446;SDS011;64024;55.820;37.574;2023-02-18T17:46:03;4.20;;;3.75;;
75446;SDS011;64024;55.820;37.574;2023-02-18T17:48:29;4.15;;;3.58;;
75446;SDS011;64024;55.820;37.574;2023-02-18T17:50:55;5.63;;;4.22;;
75446;SDS011;64024;55.820;37.574;2023-02-18T17:53:21;5.78;;;5.18;;
75446;SDS011;64024;55.820;37.574;2023-02-18T17:55:47;4.97;;;4.10;;
75446;SDS011;64024;55.820;37.574;2023-02-18T17:58:13;5.60;;;4.68;;
75446;SDS011;64024;55.820;37.574;2023-02-18T18:00:50;5.57;;;4.75;;
75446;SDS011;64024;55.820;37.574;2023-02-18T18:03:17;5.88;;;4.10;;
75446;SDS011;64024;55.820;37.574;2023-02-18T18:05:45;4.13;;;3.70;;
75446;SDS011;64024;55.820;37.574;2023-02-18T18:08:12;4.88;;;3.55;;
75446;SDS011;64024;55.820;37.574;2023-02-18T18:10:44;3.97;;;3.58;;